Time;durP1;ratioP1;P1;durP2;ratioP2;P2;SDS_P1;SDS_P2;PMS_P1;PMS_P2;Temp;Humidity;BMP_temperature;BMP_pressure;BME280_temperature;BME280_humidity;BME280_pressure;Samples;Min_cycle;Max_cycle;Signal;HPM_P1;HPM_P2
2023/12/05 00:01:34;;;;;;;15.50;9.25;;;;;;;0.50;69.92;100054.56;4965905;28;20445;-95
2023/12/05 00:03:59;;;;;;;;;;;;;;;0.51;70.29;100065.97;4950143;28;20055;-96
2023/12/05 00:06:26;;;;;;;17.17;9.43;;;;;;;0.13;71.13;100029.84;4964686;28;19941;-95
2023/12/05 00:08:51;;;;;;;19.23;10.45;;;;;;;0.09;71.06;100023.28;4982074;28;20109;-95
2023/12/05 00:11:18;;;;;;;16.58;10.13;;;;;;;0.09;71.10;100030.41;4966544;28;20109;-95
2023/12/05 00:13:43;;;;;;;16.85;9.73;;;;;;;0.14;71.24;100030.69;4965511;28;20034;-95
2023/12/05 00:16:11;;;;;;;18.55;10.95;;;;;;;0.14;71.06;100036.78;4950008;28;20428;-95
2023/12/05 00:18:37;;;;;;;17.25;9.93;;;;;;;0.09;70.55;100025.13;4965252;28;20031;-95
2023/12/05 00:21:05;;;;;;;15.55;10.30;;;;;;;0.04;72.02;100033.59;4981307;28;20023;-95
2023/12/05 00:23:32;;;;;;;19.45;10.65;;;;;;;-0.07;72.18;100023.47;4949569;28;20026;-95
2023/12/05 00:25:58;;;;;;;17.33;9.75;;;;;;;-0.12;72.52;100028.50;4981764;28;20034;-95
2023/12/05 00:28:27;;;;;;;19.65;10.75;;;;;;;-0.10;71.63;100024.66;4965192;28;20022;-95
2023/12/05 00:30:53;;;;;;;17.88;9.68;;;;;;;-0.12;71.69;100023.22;4980504;28;20034;-94
2023/12/05 00:33:20;;;;;;;18.45;10.68;;;;;;;-0.08;72.09;100038.53;4964260;28;20030;-95
2023/12/05 00:35:46;;;;;;;18.05;8.27;;;;;;;-0.16;71.90;100035.19;4979621;28;20022;-95
2023/12/05 00:38:14;;;;;;;14.50;9.00;;;;;;;-0.13;72.52;100034.78;4964494;28;20038;-96
2023/12/05 00:40:43;;;;;;;15.93;10.18;;;;;;;-0.37;72.87;100007.59;4950349;28;20034;-95
2023/12/05 00:43:10;;;;;;;13.27;9.10;;;;;;;-0.27;73.14;100023.19;4982308;28;20034;-95
2023/12/05 00:45:40;;;;;;;16.65;9.30;;;;;;;-0.24;72.13;100014.91;4964757;28;20050;-95
2023/12/05 00:48:06;;;;;;;16.40;9.05;;;;;;;0.01;71.71;100033.97;4948936;28;20049;-95
2023/12/05 00:50:31;;;;;;;16.95;10.38;;;;;;;-0.13;72.78;100032.97;4949035;28;20027;-96
2023/12/05 00:52:57;;;;;;;15.73;10.10;;;;;;;-0.26;72.50;100009.78;4969002;28;20064;-95
2023/12/05 00:55:23;;;;;;;17.20;9.65;;;;;;;-0.31;72.62;100006.88;4953024;28;20058;-96
2023/12/05 00:57:50;;;;;;;16.38;10.65;;;;;;;-0.16;73.12;100043.13;4981167;28;20496;-91
2023/12/05 01:00:18;;;;;;;19.75;10.68;;;;;;;-0.30;73.48;100026.22;4930218;28;20121;-92
2023/12/05 01:02:43;;;;;;;16.35;10.88;;;;;;;-0.29;73.57;100020.75;4946147;28;20035;-92
2023/12/05 01:05:09;;;;;;;15.98;10.65;;;;;;;-0.36;73.68;100011.88;4945374;28;20037;-92
2023/12/05 01:07:35;;;;;;;21.33;10.40;;;;;;;-0.50;73.66;99992.38;4929690;28;20480;-91
2023/12/05 01:10:05;;;;;;;17.42;10.60;;;;;;;-0.33;73.67;100018.63;4930359;28;20069;-91
2023/12/05 01:12:32;;;;;;;18.23;11.45;;;;;;;-0.42;73.59;100023.19;4930521;28;20097;-92
2023/12/05 01:14:57;;;;;;;17.75;10.32;;;;;;;-0.63;73.81;100013.31;4929989;28;20031;-92
2023/12/05 01:17:24;;;;;;;17.95;10.43;;;;;;;-0.57;73.78;100017.88;4945698;28;20109;-94
2023/12/05 01:19:49;;;;;;;19.42;10.18;;;;;;;-0.68;73.44;100005.09;4932060;29;20123;-93
2023/12/05 01:22:15;;;;;;;22.13;10.90;;;;;;;-0.69;73.72;99998.97;4928945;28;20026;-93
2023/12/05 01:24:41;;;;;;;22.00;10.95;;;;;;;-0.62;73.78;100015.78;4977736;28;20129;-93
2023/12/05 01:27:10;;;;;;;18.88;9.82;;;;;;;-0.61;73.63;100013.94;4961604;28;20408;-93
2023/12/05 01:29:35;;;;;;;18.70;9.95;;;;;;;-0.60;73.57;100012.97;4960922;28;20062;-93
2023/12/05 01:32:03;;;;;;;20.00;11.20;;;;;;;-0.51;73.48;100021.63;4961106;28;20073;-91
2023/12/05 01:34:28;;;;;;;15.88;9.70;;;;;;;-0.66;73.39;100009.19;4993521;28;20035;-94
2023/12/05 01:36:54;;;;;;;18.50;10.35;;;;;;;-0.61;73.86;100009.47;4960877;28;20471;-92
2023/12/05 01:39:20;;;;;;;17.08;9.98;;;;;;;-0.74;73.65;100005.81;4928943;28;20097;-92
2023/12/05 01:41:47;;;;;;;22.55;10.85;;;;;;;-0.70;73.32;100012.38;4977469;28;20034;-93
2023/12/05 01:44:13;;;;;;;18.25;10.05;;;;;;;-0.78;73.45;100009.81;4945531;28;20027;-93
2023/12/05 01:46:38;;;;;;;16.75;9.77;;;;;;;-0.82;73.47;100010.16;4977902;28;20031;-93
2023/12/05 01:49:05;;;;;;;17.65;8.55;;;;;;;-1.06;74.01;100002.44;4961213;28;20053;-93
2023/12/05 01:51:32;;;;;;;15.63;8.43;;;;;;;-0.88;73.67;100028.56;4977050;28;20503;-93
2023/12/05 01:53:57;;;;;;;14.95;8.80;;;;;;;-0.86;73.04;100014.16;4977339;28;20038;-92
2023/12/05 01:56:23;;;;;;;17.63;8.70;;;;;;;-1.04;72.81;99990.69;4962321;28;20030;-93
2023/12/05 01:58:48;;;;;;;15.00;8.50;;;;;;;-0.98;72.88;100001.53;4964856;28;20429;-93
2023/12/05 02:01:17;;;;;;;14.18;8.35;;;;;;;-1.12;73.13;99992.56;4963797;28;20521;-92
2023/12/05 02:04:00;;;;;;;19.05;8.70;;;;;;;-1.05;73.53;100015.47;4905619;29;20052;-93
2023/12/05 02:06:26;;;;;;;13.05;8.48;;;;;;;-1.00;73.06;100004.34;4903129;29;20131;-93
2023/12/05 02:08:54;;;;;;;19.13;9.68;;;;;;;-1.12;72.79;99993.41;4918615;29;20044;-92
2023/12/05 02:11:19;;;;;;;12.82;7.90;;;;;;;-1.20;73.46;99984.69;4903249;29;20032;-93
2023/12/05 02:13:47;;;;;;;14.75;8.43;;;;;;;-1.26;73.95;99989.69;4887328;29;20063;-92
2023/12/05 02:16:16;;;;;;;14.30;8.30;;;;;;;-1.02;73.04;99994.00;4902806;29;20101;-93
2023/12/05 02:18:45;;;;;;;13.05;9.07;;;;;;;-1.22;74.45;99983.06;4903551;29;20040;-94
2023/12/05 02:21:18;;;;;;;13.23;7.95;;;;;;;-1.23;73.64;99980.59;4903014;29;20036;-92
2023/12/05 02:23:59;;;;;;;11.75;7.65;;;;;;;-1.11;73.17;99995.03;4924534;29;20503;-93
2023/12/05 02:26:35;;;;;;;14.95;8.10;;;;;;;-1.09;73.55;100005.44;4914503;29;20081;-93
2023/12/05 02:29:01;;;;;;;13.50;7.78;;;;;;;-1.23;72.99;99975.31;4908974;29;20044;-92
2023/12/05 02:31:27;;;;;;;13.38;7.85;;;;;;;-1.07;72.50;99966.44;4902661;29;20064;-93
2023/12/05 02:33:53;;;;;;;11.70;7.97;;;;;;;-0.85;72.22;99992.03;4890186;28;20060;-92
2023/12/05 02:36:40;;;;;;;18.15;8.30;;;;;;;-0.98;72.44;99994.44;4928930;28;20031;-93
2023/12/05 02:39:12;;;;;;;13.75;8.80;;;;;;;-1.06;72.63;99978.63;4959979;28;20037;-93
2023/12/05 02:41:38;;;;;;;10.68;7.25;;;;;;;-1.18;73.27;99970.34;4929159;28;20031;-93
2023/12/05 02:44:11;;;;;;;13.18;7.82;;;;;;;-1.22;73.50;99964.56;4959887;28;20027;-92
2023/12/05 02:46:36;;;;;;;16.52;8.75;;;;;;;-0.98;73.55;99983.03;4928860;28;20456;-93
2023/12/05 02:49:03;;;;;;;13.30;7.88;;;;;;;-1.11;73.56;99973.91;4929093;28;20089;-93
2023/12/05 02:51:28;;;;;;;15.40;8.52;;;;;;;-0.89;72.90;99974.88;4944358;28;20031;-92
2023/12/05 02:53:55;;;;;;;14.77;7.97;;;;;;;-1.09;73.06;99956.03;4943990;28;20057;-93
2023/12/05 02:56:21;;;;;;;13.95;7.72;;;;;;;-0.86;72.44;99971.84;4959432;28;20027;-93
2023/12/05 02:58:46;;;;;;;12.25;7.45;;;;;;;-0.95;73.11;99965.03;4943172;28;20508;-92
2023/12/05 03:01:13;;;;;;;14.02;8.52;;;;;;;-0.89;73.05;99988.09;4927438;28;20452;-92
2023/12/05 03:03:39;;;;;;;15.38;8.30;;;;;;;-1.03;72.52;99976.47;4959103;28;20038;-93
2023/12/05 03:06:04;;;;;;;17.85;10.60;;;;;;;-1.04;72.80;99971.34;4927976;28;20035;-93
2023/12/05 03:08:30;;;;;;;18.08;10.43;;;;;;;-1.17;73.63;99960.56;4927421;28;20030;-92
2023/12/05 03:10:55;;;;;;;18.83;10.02;;;;;;;-1.17;73.76;99976.44;4928104;28;20031;-93
2023/12/05 03:13:21;;;;;;;21.40;10.18;;;;;;;-1.15;73.08;99967.31;4944138;28;20029;-92
2023/12/05 03:15:46;;;;;;;15.48;9.15;;;;;;;-1.10;73.27;99969.44;4926608;28;20027;-92
2023/12/05 03:18:13;;;;;;;13.63;9.18;;;;;;;-1.27;74.14;99966.91;4943144;28;20043;-93
2023/12/05 03:20:39;;;;;;;16.98;8.40;;;;;;;-1.23;73.73;99964.75;4943702;28;20035;-93
2023/12/05 03:23:05;;;;;;;18.08;8.88;;;;;;;-1.27;74.16;99966.09;4943450;28;20057;-92
2023/12/05 03:25:31;;;;;;;15.27;8.50;;;;;;;-1.38;74.04;99951.47;4942732;28;20157;-91
2023/12/05 03:27:58;;;;;;;18.77;9.13;;;;;;;-1.40;73.47;99952.66;4945683;28;20038;-92
2023/12/05 03:30:24;;;;;;;16.42;9.18;;;;;;;-1.35;73.61;99955.59;4963144;28;20492;-93
2023/12/05 03:32:49;;;;;;;14.38;8.60;;;;;;;-1.40;73.29;99939.47;4962982;28;20226;-93
2023/12/05 03:35:16;;;;;;;14.00;8.65;;;;;;;-1.37;72.97;99947.00;4946270;28;20026;-93
2023/12/05 03:37:42;;;;;;;14.27;8.07;;;;;;;-1.58;73.89;99930.00;4978172;28;20467;-93
2023/12/05 03:40:09;;;;;;;16.58;9.25;;;;;;;-1.46;74.00;99940.97;4946705;28;20030;-92
2023/12/05 03:42:35;;;;;;;17.08;8.73;;;;;;;-1.40;73.56;99945.56;4962623;28;20042;-92
2023/12/05 03:45:01;;;;;;;13.75;8.65;;;;;;;-1.46;73.60;99935.69;4946342;28;20065;-93
2023/12/05 03:47:27;;;;;;;13.38;8.68;;;;;;;-1.53;73.95;99917.09;4946616;28;20125;-93
2023/12/05 03:49:53;;;;;;;14.95;8.07;;;;;;;-1.52;74.49;99917.91;4978813;28;20026;-92
2023/12/05 03:52:19;;;;;;;13.57;8.82;;;;;;;-1.35;73.93;99937.94;4963049;28;20603;-93
2023/12/05 03:54:44;;;;;;;15.30;8.63;;;;;;;-1.33;73.01;99935.09;4962893;28;20027;-92
2023/12/05 03:57:10;;;;;;;14.00;7.90;;;;;;;-1.20;72.69;99932.69;4945847;28;20156;-92
2023/12/05 03:59:36;;;;;;;13.13;7.82;;;;;;;-1.11;72.44;99930.81;4942693;28;20489;-93
2023/12/05 04:02:02;;;;;;;13.93;8.20;;;;;;;-1.28;72.84;99923.00;4942454;28;20037;-92
2023/12/05 04:04:27;;;;;;;15.85;8.18;;;;;;;-1.28;73.08;99924.84;4958482;28;20069;-92
2023/12/05 04:06:56;;;;;;;16.10;8.50;;;;;;;-1.40;73.00;99921.78;4942797;28;20042;-92
2023/12/05 04:09:21;;;;;;;14.50;8.40;;;;;;;-1.40;73.07;99910.41;4958653;28;20097;-92
2023/12/05 04:11:48;;;;;;;16.00;8.95;;;;;;;-1.24;73.18;99944.63;4959342;28;20110;-92
2023/12/05 04:14:14;;;;;;;15.68;9.05;;;;;;;-1.42;73.53;99914.03;4958962;28;20047;-94
2023/12/05 04:16:40;;;;;;;16.73;9.57;;;;;;;-1.35;73.37;99937.94;4942516;28;20041;-93
2023/12/05 04:19:08;;;;;;;18.08;9.88;;;;;;;-1.26;73.34;99962.47;4959065;28;20034;-92
2023/12/05 04:21:34;;;;;;;13.05;9.23;;;;;;;-1.33;73.66;99956.22;4927912;28;20050;-93
2023/12/05 04:24:00;;;;;;;20.00;10.35;;;;;;;-1.34;73.82;99965.97;4927810;28;20027;-93
2023/12/05 04:26:26;;;;;;;18.90;10.02;;;;;;;-1.40;73.63;99956.13;4938689;29;20035;-92
2023/12/05 04:28:52;;;;;;;16.25;10.23;;;;;;;-1.29;72.97;99954.88;4947269;28;20423;-92
2023/12/05 04:31:20;;;;;;;14.75;9.20;;;;;;;-1.36;73.43;99949.50;4950791;28;20053;-93
2023/12/05 04:33:47;;;;;;;15.10;9.05;;;;;;;-1.26;73.17;99957.19;4959735;28;20021;-93
2023/12/05 04:36:13;;;;;;;16.77;9.23;;;;;;;-1.26;73.09;99947.44;4959121;28;20026;-92
2023/12/05 04:38:39;;;;;;;19.77;12.13;;;;;;;-1.25;73.38;99966.75;4927032;28;20033;-93
2023/12/05 04:41:15;;;;;;;12.30;8.43;;;;;;;-1.25;72.79;99951.69;4962544;28;20034;-96
2023/12/05 04:43:40;;;;;;;15.27;8.20;;;;;;;-1.23;72.80;99948.88;4948211;28;20476;-96
2023/12/05 04:46:06;;;;;;;17.98;8.75;;;;;;;-1.06;71.79;99958.34;4932947;28;20114;-96
2023/12/05 04:48:34;;;;;;;15.85;8.93;;;;;;;-1.06;71.54;99949.56;4935024;28;20093;-95
2023/12/05 04:51:10;;;;;;;14.40;8.98;;;;;;;-1.08;71.79;99955.06;4936243;28;20030;-95
2023/12/05 04:53:36;;;;;;;15.27;8.27;;;;;;;-0.95;71.77;99956.28;4952637;28;20038;-96
2023/12/05 04:56:02;;;;;;;14.52;8.65;;;;;;;-1.02;71.78;99946.41;4932467;28;20031;-96
2023/12/05 05:01:57;;;;;;;13.52;8.13;;;;;;;-0.63;70.91;99981.56;4997258;28;20144;-96
2023/12/05 05:04:25;;;;;;;20.98;8.88;;;;;;;-0.78;70.53;99947.19;4969269;28;20130;-94
2023/12/05 05:06:52;;;;;;;16.58;9.48;;;;;;;-0.68;71.66;99970.72;4956615;28;20085;-96
2023/12/05 05:09:28;;;;;;;19.75;9.68;;;;;;;-0.86;71.60;99941.97;4969837;28;20023;-95
2023/12/05 05:11:55;;;;;;;15.65;8.82;;;;;;;-0.67;71.20;99944.06;5000596;28;20519;-95
2023/12/05 05:14:21;;;;;;;16.58;8.85;;;;;;;-0.47;70.35;99959.44;4969422;28;20039;-95
2023/12/05 05:16:49;;;;;;;17.25;9.88;;;;;;;-0.53;70.21;99944.28;4950843;28;20029;-94
2023/12/05 05:19:15;;;;;;;17.35;9.25;;;;;;;-0.59;69.60;99929.97;4973115;28;20085;-95
2023/12/05 05:22:19;;;;;;;;;;;;;;;;;;;;;
2023/12/05 05:27:34;;;;;;;20.25;9.77;;;;;;;-0.42;70.06;99952.56;4992308;22;20409;-96
2023/12/05 05:30:04;;;;;;;14.90;8.48;;;;;;;-0.66;70.22;99921.13;4953235;28;20133;-96
2023/12/05 05:33:04;;;;;;;14.45;8.35;;;;;;;-0.73;69.65;99912.25;4935240;28;20043;-96
2023/12/05 05:35:46;;;;;;;12.95;8.00;;;;;;;-0.48;69.81;99934.81;4965805;28;20042;-96
2023/12/05 05:38:14;;;;;;;14.50;9.15;;;;;;;-0.59;70.10;99913.28;4957919;28;20079;-96
2023/12/05 05:40:43;;;;;;;14.27;9.20;;;;;;;-0.74;70.25;99900.06;4941706;28;20120;-96
2023/12/05 05:43:30;;;;;;;17.98;8.90;;;;;;;-0.78;70.82;99912.00;4937800;28;20515;-96
2023/12/05 05:46:00;;;;;;;19.27;10.27;;;;;;;-0.84;71.36;99903.78;4944273;28;20065;-96
2023/12/05 05:48:45;;;;;;;19.83;10.93;;;;;;;-0.67;70.92;99915.00;4934129;29;20554;-94
2023/12/05 05:51:11;;;;;;;21.38;13.57;;;;;;;-0.46;71.21;99935.44;4917340;29;20059;-95
2023/12/05 05:57:01;;;;;;;;;;;;;;;;;;;;;
2023/12/05 05:59:28;;;;;;;26.70;12.00;;;;;;;-0.43;71.20;99879.50;5021191;28;20045;-96
2023/12/05 06:02:08;;;;;;;24.85;13.98;;;;;;;-0.35;71.17;99891.00;4982366;28;20038;-96
2023/12/05 06:09:37;;;;;;;18.45;10.48;;;;;;;-0.01;70.49;99883.25;5032547;28;20060;-96
2023/12/05 06:12:10;;;;;;;23.45;14.65;;;;;;;0.08;70.24;99883.16;4994732;28;20030;-94
2023/12/05 06:14:36;;;;;;;28.63;15.48;;;;;;;-0.06;70.19;99861.84;4979959;28;20057;-96
2023/12/05 06:20:24;;;;;;;18.45;11.07;;;;;;;0.15;69.94;99865.53;5120313;22;20056;-95
2023/12/05 06:28:07;;;;;;;23.10;11.38;;;;;;;0.44;69.45;99864.56;5727856;22;20082;-95
2023/12/05 06:30:37;;;;;;;24.52;13.40;;;;;;;0.64;68.97;99885.91;4986014;28;20042;-96
2023/12/05 06:33:27;;;;;;;30.10;12.65;;;;;;;0.75;68.64;99887.25;4983325;28;20048;-96
2023/12/05 06:42:20;;;;;;;22.73;11.50;;;;;;;0.74;68.93;99846.66;5284745;22;20069;-96
2023/12/05 06:44:51;;;;;;;19.42;11.85;;;;;;;0.76;68.48;99835.88;4974579;28;20051;-96
2023/12/05 06:53:21;;;;;;;24.70;13.55;;;;;;;1.16;67.41;99847.56;5066085;22;20124;-96
2023/12/05 07:18:28;;;;;;;27.92;16.15;;;;;;;1.56;67.02;99783.25;5340654;22;20062;-94
2023/12/05 07:20:57;;;;;;;29.52;14.93;;;;;;;1.78;66.61;99783.91;4984151;28;20067;-95
2023/12/05 07:38:58;;;;;;;21.30;12.25;;;;;;;2.59;65.91;99799.75;5029192;23;20065;-95
2023/12/05 07:41:47;;;;;;;;;;;;;;;;;;;;;
2023/12/05 07:44:16;;;;;;;23.33;13.38;;;;;;;2.71;66.19;99786.63;5010598;28;20090;-95
2023/12/05 07:46:49;;;;;;;27.50;17.13;;;;;;;2.79;65.57;99782.94;4970596;28;20042;-96
2023/12/05 07:49:45;;;;;;;20.17;13.45;;;;;;;3.16;64.91;99802.69;4993023;28;20049;-96
2023/12/05 07:52:16;;;;;;;23.20;13.80;;;;;;;3.09;64.35;99777.94;4988059;28;20034;-94
2023/12/05 07:54:49;;;;;;;23.83;14.55;;;;;;;3.50;63.49;99787.41;4974221;28;20026;-96
2023/12/05 07:57:22;;;;;;;24.88;14.18;;;;;;;3.47;63.70;99773.72;4976739;28;20033;-96
2023/12/05 08:02:35;;;;;;;21.25;12.43;;;;;;;3.71;64.25;99783.63;5289715;22;20054;-93
2023/12/05 08:05:04;;;;;;;20.42;12.38;;;;;;;3.76;64.44;99775.81;4950287;28;20046;-92
2023/12/05 08:07:38;;;;;;;30.33;15.32;;;;;;;3.88;63.90;99767.97;4935207;28;20030;-94
2023/12/05 08:11:02;;;;;;;29.60;13.95;;;;;;;4.12;61.91;99795.66;4940541;28;20109;-96
2023/12/05 08:13:46;;;;;;;;;;;;;;;;;;;;;
2023/12/05 08:16:25;;;;;;;19.95;13.40;;;;;;;4.10;61.95;99792.41;4933568;28;20069;-96
2023/12/05 08:18:53;;;;;;;22.27;12.85;;;;;;;4.09;61.56;99764.13;4948126;28;20083;-92
2023/12/05 08:21:20;;;;;;;20.42;12.95;;;;;;;4.20;61.40;99762.63;4947246;28;20046;-94
2023/12/05 08:23:58;;;;;;;24.48;15.18;;;;;;;4.29;61.42;99765.81;4928365;28;20038;-92
2023/12/05 08:26:47;;;;;;;26.48;13.98;;;;;;;4.52;60.96;99786.53;4932990;28;20045;-95
2023/12/05 08:29:13;;;;;;;30.23;15.98;;;;;;;4.39;61.23;99758.16;4955874;28;20066;-96
2023/12/05 08:31:44;;;;;;;24.20;15.40;;;;;;;4.33;61.30;99741.16;4952467;28;20144;-94
2023/12/05 08:34:38;;;;;;;23.88;16.25;;;;;;;4.27;61.33;99742.03;4938783;28;20035;-96
2023/12/05 08:37:49;;;;;;;32.22;16.75;;;;;;;4.26;60.86;99721.78;4967824;28;20023;-96
2023/12/05 08:40:17;;;;;;;31.10;15.45;;;;;;;4.35;61.25;99741.78;4895005;29;20044;-96
2023/12/05 08:42:50;;;;;;;36.53;20.02;;;;;;;4.39;62.51;99724.31;4877880;29;20072;-94
2023/12/05 08:45:27;;;;;;;31.20;16.15;;;;;;;4.45;61.30;99710.09;4894411;29;20084;-95
2023/12/05 08:47:55;;;;;;;32.33;16.33;;;;;;;4.50;61.20;99720.09;4893644;29;20044;-95
2023/12/05 08:50:21;;;;;;;30.08;16.75;;;;;;;4.71;61.38;99729.56;4875528;29;20036;-94
2023/12/05 08:53:22;;;;;;;30.08;16.58;;;;;;;4.57;62.04;99710.19;4875274;29;20123;-95
2023/12/05 09:04:10;;;;;;;33.40;17.80;;;;;;;5.14;61.42;99699.28;5022881;28;20054;-96
2023/12/05 09:06:36;;;;;;;31.90;18.80;;;;;;;5.11;61.60;99682.94;5013999;28;20133;-96
2023/12/05 09:09:05;;;;;;;33.95;19.30;;;;;;;5.21;61.18;99686.69;5013584;28;20021;-94
2023/12/05 09:12:21;;;;;;;;;;;;;;;;;;;;;
2023/12/05 09:14:51;;;;;;;39.40;20.42;;;;;;;5.17;61.66;99685.50;5906617;22;20419;-95
2023/12/05 09:17:29;;;;;;;35.53;18.85;;;;;;;5.06;62.10;99659.56;4459353;28;15119563;-96
2023/12/05 09:20:18;;;;;;;31.58;18.45;;;;;;;5.29;61.57;99658.84;4974681;28;20125;-96
2023/12/05 09:23:33;;;;;;;32.35;18.33;;;;;;;5.17;60.72;99640.13;4977897;28;20050;-94
2023/12/05 09:26:19;;;;;;;29.08;18.00;;;;;;;5.31;60.78;99645.25;4963157;28;20130;-94
2023/12/05 09:29:08;;;;;;;38.42;18.92;;;;;;;5.47;61.28;99652.63;4996358;28;20030;-96
2023/12/05 09:32:05;;;;;;;40.00;19.40;;;;;;;5.74;60.62;99649.56;4996039;28;20038;-96
2023/12/05 09:34:33;;;;;;;45.92;20.88;;;;;;;5.74;61.05;99626.34;4985751;28;20042;-96
2023/12/05 09:37:10;;;;;;;35.85;21.13;;;;;;;5.86;60.75;99623.69;4977830;28;20113;-95
2023/12/05 09:39:41;;;;;;;48.13;20.77;;;;;;;6.00;60.39;99618.97;4975970;28;20038;-96
2023/12/05 09:42:24;;;;;;;38.17;19.20;;;;;;;6.19;59.65;99630.34;4974408;28;20006;-95
2023/12/05 09:44:53;;;;;;;33.35;18.77;;;;;;;6.14;60.10;99606.97;4976677;28;20034;-96
2023/12/05 09:56:32;;;;;;;42.10;28.95;;;;;;;6.92;59.79;99607.50;5009897;28;20116;-96
2023/12/05 09:58:57;;;;;;;28.58;18.08;;;;;;;6.87;59.63;99586.00;4959600;28;20034;-95
2023/12/05 10:01:25;;;;;;;42.53;19.92;;;;;;;6.95;59.97;99569.56;4976029;28;20030;-94
2023/12/05 10:04:17;;;;;;;48.50;27.02;;;;;;;7.19;59.57;99580.97;4980857;28;20038;-95
2023/12/05 10:06:43;;;;;;;42.10;24.50;;;;;;;7.28;59.10;99576.03;4938860;28;20054;-96
2023/12/05 10:09:11;;;;;;;46.13;21.67;;;;;;;7.39;58.88;99558.28;4936369;28;20113;-96
2023/12/05 10:51:58;;;;;;;7.70;4.82;;;;;;;9.32;57.76;99515.31;5313501;22;20043;-94
2023/12/05 10:54:51;;;;;;;15.18;10.10;;;;;;;9.31;56.39;99505.63;4960946;28;20030;-96
2023/12/05 10:57:30;;;;;;;;;;;;;;;;;;;;;
2023/12/05 11:00:03;;;;;;;10.70;6.53;;;;;;;9.18;54.00;99516.81;4912928;29;20111;-96
2023/12/05 11:11:18;;;;;;;12.07;8.90;;;;;;;7.76;54.76;99529.13;5648913;23;20058;-95
2023/12/05 11:13:44;;;;;;;14.05;7.75;;;;;;;7.03;56.95;99539.72;4991535;28;20096;-94
2023/12/05 11:16:25;;;;;;;11.93;8.05;;;;;;;6.56;58.27;99531.09;4972404;28;20585;-93
2023/12/05 11:19:11;;;;;;;11.82;8.05;;;;;;;6.45;59.69;99563.00;4972068;28;20037;-92
2023/12/05 11:21:46;;;;;;;11.95;7.93;;;;;;;6.16;60.84;99572.78;4973704;28;20022;-96
2023/12/05 11:24:41;;;;;;;13.07;8.30;;;;;;;6.01;61.51;99559.09;5004686;28;20483;-95
2023/12/05 11:27:58;;;;;;;11.02;8.18;;;;;;;5.62;61.73;99564.06;4994987;28;20021;-96
2023/12/05 11:30:45;;;;;;;13.18;8.18;;;;;;;5.37;63.13;99575.75;4975216;28;20102;-94
2023/12/05 11:33:33;;;;;;;14.38;9.30;;;;;;;5.33;62.79;99579.91;5007378;28;20026;-96
2023/12/05 11:36:21;;;;;;;15.40;9.90;;;;;;;5.33;63.37;99576.44;4988971;28;20033;-95
2023/12/05 11:38:46;;;;;;;14.18;9.18;;;;;;;5.19;63.92;99549.97;5005112;28;20112;-94
2023/12/05 11:41:25;;;;;;;16.45;10.43;;;;;;;5.07;63.91;99552.59;5218145;23;20074;-96
2023/12/05 11:44:27;;;;;;;20.05;10.52;;;;;;;5.32;63.27;99572.16;4989730;28;20031;-96
2023/12/05 11:50:29;;;;;;;;;;;;;;;5.18;63.23;99574.19;5723242;22;20069;-95
2023/12/05 11:53:08;;;;;;;17.13;10.70;;;;;;;4.91;63.59;99536.41;5008133;28;19916;-94
2023/12/05 11:55:48;;;;;;;17.63;10.25;;;;;;;4.85;62.75;99551.47;4993773;28;20038;-95
2023/12/05 11:58:36;;;;;;;19.17;11.07;;;;;;;4.81;63.69;99577.78;4978858;28;20030;-95
2023/12/05 12:09:09;;;;;;;17.90;11.80;;;;;;;4.57;63.01;99558.19;5023018;23;20046;-96
2023/12/05 12:11:35;;;;;;;24.38;13.95;;;;;;;4.45;63.78;99552.00;4977029;28;20038;-95
2023/12/05 12:14:17;;;;;;;22.15;13.07;;;;;;;4.54;63.73;99584.50;4975211;28;20022;-93
2023/12/05 12:16:43;;;;;;;17.60;11.38;;;;;;;4.28;63.92;99565.09;5218672;22;20895;-96
2023/12/05 13:02:37;;;;;;;24.75;13.88;;;;;;;3.85;61.54;99576.59;5256587;22;20046;-96
2023/12/05 13:05:04;;;;;;;20.35;12.57;;;;;;;3.84;61.99;99581.13;4985428;28;20073;-96
2023/12/05 13:07:31;;;;;;;20.35;12.60;;;;;;;3.71;62.88;99588.41;4976549;28;20038;-96
2023/12/05 13:10:00;;;;;;;22.80;12.55;;;;;;;3.65;62.90;99568.78;4980174;28;20096;-95
2023/12/05 13:12:27;;;;;;;29.10;15.23;;;;;;;3.86;63.74;99588.91;4998481;28;20096;-95
2023/12/05 13:14:53;;;;;;;82.85;38.78;;;;;;;3.97;63.11;99588.19;4999971;28;20045;-94
2023/12/05 13:17:19;;;;;;;24.33;13.70;;;;;;;3.84;63.00;99578.47;4982652;28;20034;-95
2023/12/05 13:19:49;;;;;;;21.40;14.25;;;;;;;3.87;63.23;99581.72;4981681;28;20034;-95
2023/12/05 13:25:03;;;;;;;25.27;14.77;;;;;;;3.90;62.53;99579.44;5430860;22;20057;-94
2023/12/05 13:45:59;;;;;;;28.02;17.65;;;;;;;3.90;64.09;99611.41;1490442;22;20024;-96
2023/12/05 13:48:27;;;;;;;27.73;15.52;;;;;;;3.85;63.86;99603.25;4992749;28;20054;-95
2023/12/05 13:56:07;;;;;;;23.63;13.80;;;;;;;3.68;64.25;99605.66;5512700;22;20050;-96
2023/12/05 14:11:48;;;;;;;;;;;;;;;;;;;;;
2023/12/05 14:14:39;;;;;;;33.58;18.63;;;;;;;3.12;66.81;99606.47;5010675;28;20150;-96
2023/12/05 14:20:00;;;;;;;27.17;15.43;;;;;;;2.94;67.27;99602.66;5687187;22;20060;-94
2023/12/05 14:22:47;;;;;;;32.47;16.55;;;;;;;3.09;67.53;99614.84;5312801;22;20117;-95
2023/12/05 14:31:02;;;;;;;47.35;22.30;;;;;;;2.81;68.07;99600.88;5188028;22;20054;-95
2023/12/05 14:59:05;;;;;;;28.75;17.08;;;;;;;2.71;68.11;99589.06;5674275;22;20054;-93
2023/12/05 15:01:40;;;;;;;29.02;15.70;;;;;;;2.85;68.24;99613.75;4994448;28;20034;-94
2023/12/05 15:04:15;;;;;;;30.80;17.52;;;;;;;2.80;67.38;99595.75;4950003;28;20076;-96
2023/12/05 15:06:41;;;;;;;30.75;18.25;;;;;;;2.83;68.19;99585.53;4976777;28;20034;-96
2023/12/05 15:09:17;;;;;;;28.05;16.77;;;;;;;2.82;67.78;99583.06;4957841;28;20057;-95
2023/12/05 15:12:03;;;;;;;33.63;15.57;;;;;;;2.81;68.75;99586.78;4983683;28;20029;-96
2023/12/05 15:17:25;;;;;;;27.25;14.35;;;;;;;2.83;68.07;99621.94;5692197;23;20052;-96
2023/12/05 15:19:55;;;;;;;27.45;15.63;;;;;;;2.72;68.33;99604.81;5673924;23;20478;-95
2023/12/05 15:23:10;;;;;;;33.58;20.17;;;;;;;2.77;68.26;99591.69;4918638;29;20103;-93
2023/12/05 15:36:45;;;;;;;25.40;14.90;;;;;;;3.19;66.95;99617.84;6003603;22;20163;31
2023/12/05 16:17:26;;;;;;;25.23;14.60;;;;;;;2.81;64.73;99576.13;5262445;22;20062;-95
2023/12/05 16:19:52;;;;;;;25.70;13.30;;;;;;;2.80;65.19;99569.19;4989335;28;20050;-95
2023/12/05 16:22:25;;;;;;;23.23;13.18;;;;;;;2.73;65.90;99587.00;4971580;28;20030;-95
2023/12/05 16:25:03;;;;;;;26.38;15.02;;;;;;;2.78;65.38;99577.38;4972080;28;20033;-94
2023/12/05 16:27:32;;;;;;;34.53;20.10;;;;;;;2.87;65.33;99588.59;4973073;28;20045;-94
2023/12/05 16:30:05;;;;;;;88.85;39.17;;;;;;;2.70;65.85;99564.34;4972102;28;20021;-96
2023/12/05 16:32:43;;;;;;;25.92;14.38;;;;;;;2.68;65.95;99555.75;5005878;28;20025;-94
2023/12/05 16:35:17;;;;;;;26.33;15.30;;;;;;;2.78;64.98;99565.91;4975724;28;20044;-96
2023/12/05 16:37:46;;;;;;;24.17;14.63;;;;;;;2.80;65.37;99575.34;4987290;28;20057;-96
2023/12/05 16:40:21;;;;;;;25.75;14.82;;;;;;;2.87;65.58;99579.78;4972154;28;20037;-95
2023/12/05 16:42:48;;;;;;;23.60;14.55;;;;;;;2.84;65.76;99575.69;4971188;28;20061;-95
2023/12/05 16:45:19;;;;;;;26.58;16.30;;;;;;;2.87;65.13;99567.31;4987120;28;20033;-93
2023/12/05 16:47:59;;;;;;;34.70;17.75;;;;;;;3.07;65.19;99582.31;4989197;28;20038;-95
2023/12/05 16:53:32;;;;;;;26.33;13.27;;;;;;;2.75;66.47;99550.41;5024902;28;20406;-96
2023/12/05 17:37:03;;;;;;;23.48;13.07;;;;;;;2.93;65.38;99539.06;5807390;22;20058;-96
2023/12/05 17:39:29;;;;;;;27.02;14.98;;;;;;;2.85;64.98;99550.75;4979530;28;20042;-95
